sensor_id;sensor_type;location;lat;lon;timestamp;P1;durP1;ratioP1;P2;durP2;ratioP2
37847;SDS011;23688;33.130;-117.188;2023-09-19T00:03:09;10.55;;;2.72;;
37847;SDS011;23688;33.130;-117.188;2023-09-19T00:05:37;9.63;;;2.17;;
37847;SDS011;23688;33.130;-117.188;2023-09-19T00:08:04;9.10;;;2.57;;
37847;SDS011;23688;33.130;-117.188;2023-09-19T00:10:32;14.65;;;2.97;;
37847;SDS011;23688;33.130;-117.188;2023-09-19T00:13:03;5.43;;;2.63;;
37847;SDS011;23688;33.130;-117.188;2023-09-19T00:15:31;5.80;;;2.63;;
37847;SDS011;23688;33.130;-117.188;2023-09-19T00:18:03;8.88;;;3.67;;
37847;SDS011;23688;33.130;-117.188;2023-09-19T00:20:35;6.97;;;2.70;;
37847;SDS011;23688;33.130;-117.188;2023-09-19T00:23:03;5.43;;;2.28;;
37847;SDS011;23688;33.130;-117.188;2023-09-19T00:25:30;6.03;;;2.30;;
37847;SDS011;23688;33.130;-117.188;2023-09-19T00:28:05;5.55;;;3.00;;
37847;SDS011;23688;33.130;-117.188;2023-09-19T00:30:33;5.63;;;2.53;;
37847;SDS011;23688;33.130;-117.188;2023-09-19T00:33:00;7.15;;;2.60;;
37847;SDS011;23688;33.130;-117.188;2023-09-19T00:35:27;4.28;;;1.90;;
37847;SDS011;23688;33.130;-117.188;2023-09-19T00:37:53;3.17;;;2.28;;
37847;SDS011;23688;33.130;-117.188;2023-09-19T00:40:20;3.72;;;2.00;;
37847;SDS011;23688;33.130;-117.188;2023-09-19T00:42:48;9.05;;;2.17;;
37847;SDS011;23688;33.130;-117.188;2023-09-19T00:45:16;4.13;;;2.25;;
37847;SDS011;23688;33.130;-117.188;2023-09-19T00:47:49;9.40;;;3.15;;
37847;SDS011;23688;33.130;-117.188;2023-09-19T00:50:17;6.60;;;2.30;;
37847;SDS011;23688;33.130;-117.188;2023-09-19T00:52:46;10.40;;;3.13;;
37847;SDS011;23688;33.130;-117.188;2023-09-19T00:55:15;5.93;;;2.15;;
37847;SDS011;23688;33.130;-117.188;2023-09-19T00:57:45;7.53;;;2.45;;
37847;SDS011;23688;33.130;-117.188;2023-09-19T01:00:12;5.57;;;2.92;;
37847;SDS011;23688;33.130;-117.188;2023-09-19T01:02:44;5.63;;;2.90;;
37847;SDS011;23688;33.130;-117.188;2023-09-19T01:05:11;7.03;;;3.28;;
37847;SDS011;23688;33.130;-117.188;2023-09-19T01:07:38;7.38;;;2.92;;
37847;SDS011;23688;33.130;-117.188;2023-09-19T01:10:15;6.65;;;2.40;;
37847;SDS011;23688;33.130;-117.188;2023-09-19T01:31:48;10.55;;;2.40;;
37847;SDS011;23688;33.130;-117.188;2023-09-19T01:34:19;8.88;;;3.20;;
37847;SDS011;23688;33.130;-117.188;2023-09-19T01:36:47;11.27;;;3.28;;
37847;SDS011;23688;33.130;-117.188;2023-09-19T01:39:14;10.18;;;3.72;;
37847;SDS011;23688;33.130;-117.188;2023-09-19T01:47:08;9.52;;;2.80;;
37847;SDS011;23688;33.130;-117.188;2023-09-19T01:52:33;7.05;;;2.75;;
37847;SDS011;23688;33.130;-117.188;2023-09-19T01:55:06;5.72;;;2.70;;
37847;SDS011;23688;33.130;-117.188;2023-09-19T01:57:40;9.70;;;3.08;;
37847;SDS011;23688;33.130;-117.188;2023-09-19T02:00:09;5.63;;;2.97;;
37847;SDS011;23688;33.130;-117.188;2023-09-19T02:02:38;8.18;;;3.10;;
37847;SDS011;23688;33.130;-117.188;2023-09-19T02:05:05;8.77;;;3.55;;
37847;SDS011;23688;33.130;-117.188;2023-09-19T02:07:32;6.47;;;3.30;;
37847;SDS011;23688;33.130;-117.188;2023-09-19T02:10:04;9.77;;;3.22;;
37847;SDS011;23688;33.130;-117.188;2023-09-19T02:12:32;8.45;;;3.10;;
37847;SDS011;23688;33.130;-117.188;2023-09-19T02:15:00;12.68;;;3.45;;
37847;SDS011;23688;33.130;-117.188;2023-09-19T02:17:26;10.43;;;3.55;;
37847;SDS011;23688;33.130;-117.188;2023-09-19T02:19:53;7.68;;;3.58;;
37847;SDS011;23688;33.130;-117.188;2023-09-19T02:22:21;7.78;;;4.18;;
37847;SDS011;23688;33.130;-117.188;2023-09-19T02:24:48;9.15;;;3.17;;
37847;SDS011;23688;33.130;-117.188;2023-09-19T02:27:14;10.25;;;3.63;;
37847;SDS011;23688;33.130;-117.188;2023-09-19T02:29:43;11.68;;;3.30;;
37847;SDS011;23688;33.130;-117.188;2023-09-19T02:32:10;12.68;;;3.47;;
37847;SDS011;23688;33.130;-117.188;2023-09-19T02:34:36;8.48;;;3.40;;
37847;SDS011;23688;33.130;-117.188;2023-09-19T02:37:06;9.40;;;3.47;;
37847;SDS011;23688;33.130;-117.188;2023-09-19T02:39:36;9.07;;;3.60;;
37847;SDS011;23688;33.130;-117.188;2023-09-19T02:42:03;8.63;;;3.08;;
37847;SDS011;23688;33.130;-117.188;2023-09-19T02:44:30;14.57;;;3.72;;
37847;SDS011;23688;33.130;-117.188;2023-09-19T02:46:56;6.05;;;3.35;;
37847;SDS011;23688;33.130;-117.188;2023-09-19T02:49:23;9.85;;;4.15;;
37847;SDS011;23688;33.130;-117.188;2023-09-19T02:51:49;7.32;;;3.20;;
37847;SDS011;23688;33.130;-117.188;2023-09-19T02:54:17;6.68;;;4.10;;
37847;SDS011;23688;33.130;-117.188;2023-09-19T02:56:44;6.43;;;3.55;;
37847;SDS011;23688;33.130;-117.188;2023-09-19T02:59:10;10.38;;;3.60;;
37847;SDS011;23688;33.130;-117.188;2023-09-19T03:01:37;5.78;;;3.38;;
37847;SDS011;23688;33.130;-117.188;2023-09-19T03:04:04;10.98;;;4.30;;
37847;SDS011;23688;33.130;-117.188;2023-09-19T03:06:37;9.50;;;4.13;;
37847;SDS011;23688;33.130;-117.188;2023-09-19T03:09:04;8.20;;;3.57;;
37847;SDS011;23688;33.130;-117.188;2023-09-19T03:11:37;10.75;;;3.60;;
37847;SDS011;23688;33.130;-117.188;2023-09-19T03:14:05;9.77;;;4.80;;
37847;SDS011;23688;33.130;-117.188;2023-09-19T03:16:32;13.23;;;4.68;;
37847;SDS011;23688;33.130;-117.188;2023-09-19T03:18:58;11.05;;;3.83;;
37847;SDS011;23688;33.130;-117.188;2023-09-19T03:21:25;12.38;;;3.80;;
37847;SDS011;23688;33.130;-117.188;2023-09-19T03:23:51;9.20;;;3.45;;
37847;SDS011;23688;33.130;-117.188;2023-09-19T03:26:18;7.85;;;4.07;;
37847;SDS011;23688;33.130;-117.188;2023-09-19T03:28:44;12.18;;;3.70;;
37847;SDS011;23688;33.130;-117.188;2023-09-19T03:31:11;9.38;;;3.38;;
37847;SDS011;23688;33.130;-117.188;2023-09-19T03:33:37;10.27;;;3.45;;
37847;SDS011;23688;33.130;-117.188;2023-09-19T03:36:04;7.75;;;4.00;;
37847;SDS011;23688;33.130;-117.188;2023-09-19T03:38:31;10.90;;;4.32;;
37847;SDS011;23688;33.130;-117.188;2023-09-19T03:40:58;8.35;;;3.67;;
37847;SDS011;23688;33.130;-117.188;2023-09-19T03:43:24;8.93;;;4.00;;
37847;SDS011;23688;33.130;-117.188;2023-09-19T03:45:51;11.43;;;4.50;;
37847;SDS011;23688;33.130;-117.188;2023-09-19T03:48:19;8.15;;;4.00;;
37847;SDS011;23688;33.130;-117.188;2023-09-19T03:50:47;12.23;;;4.32;;
37847;SDS011;23688;33.130;-117.188;2023-09-19T03:53:16;16.63;;;4.45;;
37847;SDS011;23688;33.130;-117.188;2023-09-19T03:55:44;10.20;;;4.55;;
37847;SDS011;23688;33.130;-117.188;2023-09-19T03:58:11;10.43;;;4.22;;
37847;SDS011;23688;33.130;-117.188;2023-09-19T04:00:39;12.57;;;4.47;;
37847;SDS011;23688;33.130;-117.188;2023-09-19T04:03:06;11.50;;;4.00;;
37847;SDS011;23688;33.130;-117.188;2023-09-19T04:05:33;10.45;;;4.10;;
37847;SDS011;23688;33.130;-117.188;2023-09-19T04:07:59;7.22;;;4.68;;
37847;SDS011;23688;33.130;-117.188;2023-09-19T04:10:25;15.20;;;4.88;;
37847;SDS011;23688;33.130;-117.188;2023-09-19T04:12:52;15.02;;;4.95;;
37847;SDS011;23688;33.130;-117.188;2023-09-19T04:15:19;8.50;;;4.53;;
37847;SDS011;23688;33.130;-117.188;2023-09-19T04:17:47;12.68;;;5.03;;
37847;SDS011;23688;33.130;-117.188;2023-09-19T04:20:15;10.95;;;4.38;;
37847;SDS011;23688;33.130;-117.188;2023-09-19T04:22:44;11.13;;;5.32;;
37847;SDS011;23688;33.130;-117.188;2023-09-19T04:25:11;10.05;;;4.68;;
37847;SDS011;23688;33.130;-117.188;2023-09-19T04:27:38;9.98;;;4.75;;
37847;SDS011;23688;33.130;-117.188;2023-09-19T04:30:08;8.57;;;3.92;;
37847;SDS011;23688;33.130;-117.188;2023-09-19T04:32:54;12.18;;;4.78;;
37847;SDS011;23688;33.130;-117.188;2023-09-19T04:35:20;7.20;;;4.20;;
37847;SDS011;23688;33.130;-117.188;2023-09-19T04:37:47;8.05;;;4.28;;
37847;SDS011;23688;33.130;-117.188;2023-09-19T04:40:13;14.20;;;4.93;;
37847;SDS011;23688;33.130;-117.188;2023-09-19T04:42:42;11.27;;;4.68;;
37847;SDS011;23688;33.130;-117.188;2023-09-19T04:45:10;10.93;;;4.70;;
37847;SDS011;23688;33.130;-117.188;2023-09-19T04:47:37;7.57;;;4.70;;
37847;SDS011;23688;33.130;-117.188;2023-09-19T04:50:09;10.18;;;4.50;;
37847;SDS011;23688;33.130;-117.188;2023-09-19T04:52:41;8.52;;;4.38;;
37847;SDS011;23688;33.130;-117.188;2023-09-19T04:55:10;9.00;;;4.40;;
37847;SDS011;23688;33.130;-117.188;2023-09-19T04:57:45;10.40;;;4.97;;
37847;SDS011;23688;33.130;-117.188;2023-09-19T05:00:14;7.88;;;4.28;;
37847;SDS011;23688;33.130;-117.188;2023-09-19T05:02:42;12.80;;;4.53;;
37847;SDS011;23688;33.130;-117.188;2023-09-19T05:05:10;8.50;;;4.68;;
37847;SDS011;23688;33.130;-117.188;2023-09-19T05:07:36;10.05;;;4.43;;
37847;SDS011;23688;33.130;-117.188;2023-09-19T05:10:05;11.02;;;4.50;;
37847;SDS011;23688;33.130;-117.188;2023-09-19T05:12:34;7.05;;;4.78;;
37847;SDS011;23688;33.130;-117.188;2023-09-19T05:15:01;8.95;;;4.93;;
37847;SDS011;23688;33.130;-117.188;2023-09-19T05:17:30;11.20;;;4.72;;
37847;SDS011;23688;33.130;-117.188;2023-09-19T05:19:58;12.20;;;5.57;;
37847;SDS011;23688;33.130;-117.188;2023-09-19T05:22:29;10.43;;;4.50;;
37847;SDS011;23688;33.130;-117.188;2023-09-19T05:24:56;11.25;;;4.32;;
37847;SDS011;23688;33.130;-117.188;2023-09-19T05:27:23;10.38;;;4.82;;
37847;SDS011;23688;33.130;-117.188;2023-09-19T05:29:49;10.80;;;4.88;;
37847;SDS011;23688;33.130;-117.188;2023-09-19T05:34:45;8.20;;;4.68;;
37847;SDS011;23688;33.130;-117.188;2023-09-19T05:37:12;9.00;;;4.57;;
37847;SDS011;23688;33.130;-117.188;2023-09-19T05:39:41;9.43;;;5.28;;
37847;SDS011;23688;33.130;-117.188;2023-09-19T05:42:08;9.88;;;4.90;;
37847;SDS011;23688;33.130;-117.188;2023-09-19T05:44:35;14.48;;;5.20;;
37847;SDS011;23688;33.130;-117.188;2023-09-19T05:47:02;11.30;;;5.30;;
37847;SDS011;23688;33.130;-117.188;2023-09-19T05:49:29;8.52;;;4.88;;
37847;SDS011;23688;33.130;-117.188;2023-09-19T05:51:55;10.65;;;5.75;;
37847;SDS011;23688;33.130;-117.188;2023-09-19T05:56:50;9.05;;;5.80;;
37847;SDS011;23688;33.130;-117.188;2023-09-19T05:59:18;11.05;;;5.45;;
37847;SDS011;23688;33.130;-117.188;2023-09-19T06:01:45;10.07;;;4.82;;
37847;SDS011;23688;33.130;-117.188;2023-09-19T06:04:12;10.63;;;6.00;;
37847;SDS011;23688;33.130;-117.188;2023-09-19T06:06:38;14.30;;;5.60;;
37847;SDS011;23688;33.130;-117.188;2023-09-19T06:09:05;15.52;;;7.05;;
37847;SDS011;23688;33.130;-117.188;2023-09-19T06:11:35;12.40;;;6.53;;
37847;SDS011;23688;33.130;-117.188;2023-09-19T06:14:03;16.88;;;9.27;;
37847;SDS011;23688;33.130;-117.188;2023-09-19T06:16:29;14.50;;;7.90;;
37847;SDS011;23688;33.130;-117.188;2023-09-19T06:18:57;10.27;;;5.68;;
37847;SDS011;23688;33.130;-117.188;2023-09-19T06:21:27;18.80;;;7.07;;
37847;SDS011;23688;33.130;-117.188;2023-09-19T06:23:53;13.25;;;7.75;;
37847;SDS011;23688;33.130;-117.188;2023-09-19T06:26:20;12.55;;;5.80;;
37847;SDS011;23688;33.130;-117.188;2023-09-19T06:28:47;7.05;;;5.47;;
37847;SDS011;23688;33.130;-117.188;2023-09-19T06:31:16;11.00;;;5.57;;
37847;SDS011;23688;33.130;-117.188;2023-09-19T06:33:43;16.90;;;7.68;;
37847;SDS011;23688;33.130;-117.188;2023-09-19T06:36:09;12.70;;;6.38;;
37847;SDS011;23688;33.130;-117.188;2023-09-19T06:38:36;15.18;;;7.18;;
37847;SDS011;23688;33.130;-117.188;2023-09-19T06:41:04;12.93;;;6.57;;
37847;SDS011;23688;33.130;-117.188;2023-09-19T06:43:33;13.00;;;5.90;;
37847;SDS011;23688;33.130;-117.188;2023-09-19T06:46:00;10.82;;;5.75;;
37847;SDS011;23688;33.130;-117.188;2023-09-19T06:48:27;14.85;;;6.53;;
37847;SDS011;23688;33.130;-117.188;2023-09-19T06:50:58;14.10;;;6.53;;
37847;SDS011;23688;33.130;-117.188;2023-09-19T06:53:33;11.55;;;7.30;;
37847;SDS011;23688;33.130;-117.188;2023-09-19T06:56:02;11.48;;;6.22;;
37847;SDS011;23688;33.130;-117.188;2023-09-19T06:58:28;18.83;;;6.60;;
37847;SDS011;23688;33.130;-117.188;2023-09-19T07:00:56;16.42;;;6.95;;
37847;SDS011;23688;33.130;-117.188;2023-09-19T07:03:23;15.23;;;7.13;;
37847;SDS011;23688;33.130;-117.188;2023-09-19T07:08:18;10.38;;;6.43;;
37847;SDS011;23688;33.130;-117.188;2023-09-19T07:10:45;13.02;;;6.75;;
37847;SDS011;23688;33.130;-117.188;2023-09-19T07:13:15;15.50;;;6.68;;
37847;SDS011;23688;33.130;-117.188;2023-09-19T07:15:44;11.30;;;6.20;;
37847;SDS011;23688;33.130;-117.188;2023-09-19T07:18:15;14.77;;;7.13;;
37847;SDS011;23688;33.130;-117.188;2023-09-19T07:20:43;9.88;;;6.53;;
37847;SDS011;23688;33.130;-117.188;2023-09-19T07:23:20;13.35;;;6.97;;
37847;SDS011;23688;33.130;-117.188;2023-09-19T07:25:51;13.73;;;7.25;;
37847;SDS011;23688;33.130;-117.188;2023-09-19T07:28:18;12.30;;;7.07;;
37847;SDS011;23688;33.130;-117.188;2023-09-19T07:30:44;11.90;;;5.68;;
37847;SDS011;23688;33.130;-117.188;2023-09-19T07:33:10;13.00;;;7.03;;
37847;SDS011;23688;33.130;-117.188;2023-09-19T07:35:37;11.38;;;5.47;;
37847;SDS011;23688;33.130;-117.188;2023-09-19T07:38:07;13.38;;;6.47;;
37847;SDS011;23688;33.130;-117.188;2023-09-19T07:40:37;12.93;;;6.32;;
37847;SDS011;23688;33.130;-117.188;2023-09-19T07:43:04;10.25;;;5.88;;
37847;SDS011;23688;33.130;-117.188;2023-09-19T07:45:32;12.73;;;6.57;;
37847;SDS011;23688;33.130;-117.188;2023-09-19T07:47:58;11.20;;;5.68;;
37847;SDS011;23688;33.130;-117.188;2023-09-19T07:50:33;14.90;;;5.93;;
37847;SDS011;23688;33.130;-117.188;2023-09-19T07:53:03;11.07;;;6.30;;
37847;SDS011;23688;33.130;-117.188;2023-09-19T07:55:30;14.15;;;7.05;;
37847;SDS011;23688;33.130;-117.188;2023-09-19T07:57:59;11.80;;;6.00;;
37847;SDS011;23688;33.130;-117.188;2023-09-19T08:00:26;18.58;;;6.82;;
37847;SDS011;23688;33.130;-117.188;2023-09-19T08:02:52;15.48;;;6.93;;
37847;SDS011;23688;33.130;-117.188;2023-09-19T08:05:18;11.35;;;6.63;;
37847;SDS011;23688;33.130;-117.188;2023-09-19T08:07:46;13.63;;;6.93;;
37847;SDS011;23688;33.130;-117.188;2023-09-19T08:10:16;16.50;;;7.35;;
37847;SDS011;23688;33.130;-117.188;2023-09-19T08:15:15;14.65;;;6.53;;
37847;SDS011;23688;33.130;-117.188;2023-09-19T08:17:44;20.00;;;7.17;;
37847;SDS011;23688;33.130;-117.188;2023-09-19T08:20:12;15.80;;;6.93;;
37847;SDS011;23688;33.130;-117.188;2023-09-19T08:22:47;12.75;;;6.35;;
37847;SDS011;23688;33.130;-117.188;2023-09-19T08:25:20;12.25;;;6.47;;
37847;SDS011;23688;33.130;-117.188;2023-09-19T08:27:47;7.65;;;5.82;;
37847;SDS011;23688;33.130;-117.188;2023-09-19T08:30:15;15.67;;;6.77;;
37847;SDS011;23688;33.130;-117.188;2023-09-19T08:32:49;10.73;;;6.30;;
37847;SDS011;23688;33.130;-117.188;2023-09-19T08:35:16;9.00;;;5.85;;
37847;SDS011;23688;33.130;-117.188;2023-09-19T08:37:43;11.10;;;6.60;;
37847;SDS011;23688;33.130;-117.188;2023-09-19T08:40:12;9.05;;;5.68;;
37847;SDS011;23688;33.130;-117.188;2023-09-19T08:42:48;18.35;;;6.07;;
37847;SDS011;23688;33.130;-117.188;2023-09-19T08:45:15;10.88;;;6.43;;
37847;SDS011;23688;33.130;-117.188;2023-09-19T08:48:03;9.38;;;5.60;;
37847;SDS011;23688;33.130;-117.188;2023-09-19T08:50:32;11.63;;;6.85;;
37847;SDS011;23688;33.130;-117.188;2023-09-19T08:53:06;15.38;;;6.47;;
37847;SDS011;23688;33.130;-117.188;2023-09-19T08:55:37;12.43;;;6.32;;
37847;SDS011;23688;33.130;-117.188;2023-09-19T08:58:09;9.27;;;6.05;;
37847;SDS011;23688;33.130;-117.188;2023-09-19T09:00:38;11.02;;;6.40;;
37847;SDS011;23688;33.130;-117.188;2023-09-19T09:03:09;11.30;;;6.13;;
37847;SDS011;23688;33.130;-117.188;2023-09-19T09:05:39;13.80;;;6.75;;
37847;SDS011;23688;33.130;-117.188;2023-09-19T09:08:11;12.32;;;6.03;;
37847;SDS011;23688;33.130;-117.188;2023-09-19T09:10:39;12.32;;;5.93;;
37847;SDS011;23688;33.130;-117.188;2023-09-19T09:13:08;13.80;;;6.25;;
37847;SDS011;23688;33.130;-117.188;2023-09-19T09:15:37;10.00;;;5.85;;
37847;SDS011;23688;33.130;-117.188;2023-09-19T09:18:04;10.88;;;5.85;;
37847;SDS011;23688;33.130;-117.188;2023-09-19T09:20:30;14.63;;;6.47;;
37847;SDS011;23688;33.130;-117.188;2023-09-19T09:22:57;11.57;;;6.13;;
37847;SDS011;23688;33.130;-117.188;2023-09-19T09:25:49;9.02;;;5.30;;
37847;SDS011;23688;33.130;-117.188;2023-09-19T09:28:38;8.77;;;5.25;;
37847;SDS011;23688;33.130;-117.188;2023-09-19T09:31:23;8.07;;;5.88;;
37847;SDS011;23688;33.130;-117.188;2023-09-19T09:33:53;11.52;;;5.85;;
37847;SDS011;23688;33.130;-117.188;2023-09-19T09:36:39;11.05;;;6.00;;
37847;SDS011;23688;33.130;-117.188;2023-09-19T09:39:09;12.90;;;6.15;;
37847;SDS011;23688;33.130;-117.188;2023-09-19T09:41:43;9.88;;;6.00;;
37847;SDS011;23688;33.130;-117.188;2023-09-19T09:44:14;11.07;;;5.70;;
37847;SDS011;23688;33.130;-117.188;2023-09-19T09:46:43;12.07;;;5.80;;
37847;SDS011;23688;33.130;-117.188;2023-09-19T09:49:22;15.18;;;5.88;;
37847;SDS011;23688;33.130;-117.188;2023-09-19T09:52:02;9.35;;;5.47;;
37847;SDS011;23688;33.130;-117.188;2023-09-19T09:54:34;7.85;;;5.50;;
37847;SDS011;23688;33.130;-117.188;2023-09-19T09:57:07;9.77;;;6.00;;
37847;SDS011;23688;33.130;-117.188;2023-09-19T10:02:26;10.65;;;5.80;;
37847;SDS011;23688;33.130;-117.188;2023-09-19T10:05:22;9.50;;;5.93;;
37847;SDS011;23688;33.130;-117.188;2023-09-19T10:08:12;11.05;;;5.80;;
37847;SDS011;23688;33.130;-117.188;2023-09-19T10:10:44;9.95;;;5.65;;
37847;SDS011;23688;33.130;-117.188;2023-09-19T10:13:20;11.18;;;5.47;;
37847;SDS011;23688;33.130;-117.188;2023-09-19T10:18:26;11.93;;;5.82;;
37847;SDS011;23688;33.130;-117.188;2023-09-19T10:20:56;10.55;;;5.45;;
37847;SDS011;23688;33.130;-117.188;2023-09-19T10:23:22;7.22;;;5.32;;
37847;SDS011;23688;33.130;-117.188;2023-09-19T10:25:51;15.07;;;5.85;;
37847;SDS011;23688;33.130;-117.188;2023-09-19T10:28:21;11.68;;;5.68;;
37847;SDS011;23688;33.130;-117.188;2023-09-19T10:30:48;10.23;;;6.35;;
37847;SDS011;23688;33.130;-117.188;2023-09-19T10:33:17;10.93;;;6.07;;
37847;SDS011;23688;33.130;-117.188;2023-09-19T10:35:48;10.75;;;6.05;;
37847;SDS011;23688;33.130;-117.188;2023-09-19T10:38:19;7.63;;;6.35;;
37847;SDS011;23688;33.130;-117.188;2023-09-19T10:40:50;8.25;;;6.20;;
37847;SDS011;23688;33.130;-117.188;2023-09-19T10:43:17;14.50;;;6.65;;
37847;SDS011;23688;33.130;-117.188;2023-09-19T10:45:46;9.43;;;5.32;;
37847;SDS011;23688;33.130;-117.188;2023-09-19T10:48:19;11.20;;;5.47;;
37847;SDS011;23688;33.130;-117.188;2023-09-19T10:50:58;9.52;;;5.60;;
37847;SDS011;23688;33.130;-117.188;2023-09-19T10:53:31;15.23;;;7.88;;
37847;SDS011;23688;33.130;-117.188;2023-09-19T10:56:09;10.35;;;6.60;;
37847;SDS011;23688;33.130;-117.188;2023-09-19T10:58:42;11.65;;;6.30;;
37847;SDS011;23688;33.130;-117.188;2023-09-19T11:01:10;13.75;;;8.07;;
37847;SDS011;23688;33.130;-117.188;2023-09-19T11:03:38;11.77;;;7.65;;
37847;SDS011;23688;33.130;-117.188;2023-09-19T11:06:14;13.82;;;7.80;;
37847;SDS011;23688;33.130;-117.188;2023-09-19T11:08:55;14.75;;;8.50;;
37847;SDS011;23688;33.130;-117.188;2023-09-19T11:11:39;14.57;;;7.32;;
37847;SDS011;23688;33.130;-117.188;2023-09-19T11:30:38;16.02;;;8.48;;
37847;SDS011;23688;33.130;-117.188;2023-09-19T11:33:25;11.15;;;7.40;;
37847;SDS011;23688;33.130;-117.188;2023-09-19T11:46:51;11.27;;;7.35;;
37847;SDS011;23688;33.130;-117.188;2023-09-19T11:49:18;12.55;;;6.88;;
37847;SDS011;23688;33.130;-117.188;2023-09-19T11:51:50;8.40;;;5.82;;
37847;SDS011;23688;33.130;-117.188;2023-09-19T11:54:17;11.43;;;7.35;;
37847;SDS011;23688;33.130;-117.188;2023-09-19T11:56:48;11.25;;;6.50;;
37847;SDS011;23688;33.130;-117.188;2023-09-19T11:59:24;8.45;;;6.30;;
37847;SDS011;23688;33.130;-117.188;2023-09-19T12:02:04;13.55;;;7.18;;
37847;SDS011;23688;33.130;-117.188;2023-09-19T12:07:03;9.70;;;6.18;;
37847;SDS011;23688;33.130;-117.188;2023-09-19T12:09:39;9.75;;;6.63;;
37847;SDS011;23688;33.130;-117.188;2023-09-19T12:12:11;7.50;;;6.47;;
37847;SDS011;23688;33.130;-117.188;2023-09-19T12:15:01;9.07;;;6.57;;
37847;SDS011;23688;33.130;-117.188;2023-09-19T12:17:37;8.07;;;6.70;;
37847;SDS011;23688;33.130;-117.188;2023-09-19T12:20:06;8.23;;;6.40;;
37847;SDS011;23688;33.130;-117.188;2023-09-19T12:22:43;12.48;;;7.30;;
37847;SDS011;23688;33.130;-117.188;2023-09-19T12:25:14;15.50;;;6.90;;
37847;SDS011;23688;33.130;-117.188;2023-09-19T12:27:46;9.50;;;6.32;;
37847;SDS011;23688;33.130;-117.188;2023-09-19T12:30:16;9.38;;;6.80;;
37847;SDS011;23688;33.130;-117.188;2023-09-19T12:32:45;12.90;;;7.07;;
37847;SDS011;23688;33.130;-117.188;2023-09-19T12:35:26;9.60;;;6.22;;
37847;SDS011;23688;33.130;-117.188;2023-09-19T12:37:55;13.82;;;6.95;;
37847;SDS011;23688;33.130;-117.188;2023-09-19T12:40:22;11.65;;;6.75;;
37847;SDS011;23688;33.130;-117.188;2023-09-19T12:42:53;13.85;;;7.05;;
37847;SDS011;23688;33.130;-117.188;2023-09-19T12:45:30;14.20;;;6.82;;
37847;SDS011;23688;33.130;-117.188;2023-09-19T12:51:08;8.18;;;6.68;;
37847;SDS011;23688;33.130;-117.188;2023-09-19T12:53:41;9.13;;;6.65;;
37847;SDS011;23688;33.130;-117.188;2023-09-19T12:56:15;8.45;;;6.20;;
37847;SDS011;23688;33.130;-117.188;2023-09-19T13:01:35;14.40;;;7.25;;
37847;SDS011;23688;33.130;-117.188;2023-09-19T13:04:21;17.90;;;7.00;;
37847;SDS011;23688;33.130;-117.188;2023-09-19T13:06:55;14.00;;;7.05;;
37847;SDS011;23688;33.130;-117.188;2023-09-19T13:09:26;14.05;;;7.07;;
37847;SDS011;23688;33.130;-117.188;2023-09-19T13:12:04;12.82;;;7.32;;
37847;SDS011;23688;33.130;-117.188;2023-09-19T13:15:09;10.27;;;7.15;;
37847;SDS011;23688;33.130;-117.188;2023-09-19T13:17:48;12.75;;;6.40;;
37847;SDS011;23688;33.130;-117.188;2023-09-19T13:20:21;11.52;;;6.82;;
37847;SDS011;23688;33.130;-117.188;2023-09-19T13:23:04;13.93;;;6.90;;
37847;SDS011;23688;33.130;-117.188;2023-09-19T13:25:35;10.48;;;6.75;;
37847;SDS011;23688;33.130;-117.188;2023-09-19T13:28:05;12.20;;;7.25;;
37847;SDS011;23688;33.130;-117.188;2023-09-19T13:30:31;12.65;;;6.13;;
37847;SDS011;23688;33.130;-117.188;2023-09-19T13:33:10;11.50;;;6.72;;
37847;SDS011;23688;33.130;-117.188;2023-09-19T13:35:38;9.07;;;6.82;;
37847;SDS011;23688;33.130;-117.188;2023-09-19T13:38:08;13.00;;;6.70;;
37847;SDS011;23688;33.130;-117.188;2023-09-19T13:43:04;15.50;;;6.78;;
37847;SDS011;23688;33.130;-117.188;2023-09-19T13:45:32;10.20;;;6.63;;
37847;SDS011;23688;33.130;-117.188;2023-09-19T13:47:58;9.23;;;7.20;;
37847;SDS011;23688;33.130;-117.188;2023-09-19T13:50:24;12.25;;;7.43;;
37847;SDS011;23688;33.130;-117.188;2023-09-19T13:52:51;12.60;;;6.28;;
37847;SDS011;23688;33.130;-117.188;2023-09-19T13:55:19;13.80;;;6.82;;
37847;SDS011;23688;33.130;-117.188;2023-09-19T13:57:49;9.48;;;6.53;;
37847;SDS011;23688;33.130;-117.188;2023-09-19T14:00:21;11.18;;;6.88;;
37847;SDS011;23688;33.130;-117.188;2023-09-19T14:02:49;14.27;;;6.90;;
37847;SDS011;23688;33.130;-117.188;2023-09-19T14:05:16;12.10;;;7.25;;
37847;SDS011;23688;33.130;-117.188;2023-09-19T14:07:42;10.45;;;7.13;;
37847;SDS011;23688;33.130;-117.188;2023-09-19T14:10:10;9.23;;;5.80;;
37847;SDS011;23688;33.130;-117.188;2023-09-19T14:12:37;13.70;;;5.93;;
37847;SDS011;23688;33.130;-117.188;2023-09-19T14:15:06;7.45;;;5.40;;
37847;SDS011;23688;33.130;-117.188;2023-09-19T14:17:33;10.98;;;5.60;;
37847;SDS011;23688;33.130;-117.188;2023-09-19T14:20:00;16.75;;;7.30;;
37847;SDS011;23688;33.130;-117.188;2023-09-19T14:22:26;8.55;;;5.88;;
37847;SDS011;23688;33.130;-117.188;2023-09-19T14:24:53;11.27;;;5.55;;
37847;SDS011;23688;33.130;-117.188;2023-09-19T14:27:20;9.85;;;5.72;;
37847;SDS011;23688;33.130;-117.188;2023-09-19T14:29:46;11.80;;;5.80;;
37847;SDS011;23688;33.130;-117.188;2023-09-19T14:32:12;11.35;;;5.35;;
37847;SDS011;23688;33.130;-117.188;2023-09-19T14:34:39;11.95;;;5.65;;
37847;SDS011;23688;33.130;-117.188;2023-09-19T14:37:08;10.95;;;5.18;;
37847;SDS011;23688;33.130;-117.188;2023-09-19T14:39:36;7.85;;;5.25;;
37847;SDS011;23688;33.130;-117.188;2023-09-19T14:42:05;10.70;;;5.15;;
37847;SDS011;23688;33.130;-117.188;2023-09-19T14:44:31;6.63;;;4.80;;
37847;SDS011;23688;33.130;-117.188;2023-09-19T14:47:00;7.82;;;5.20;;
37847;SDS011;23688;33.130;-117.188;2023-09-19T14:49:26;9.43;;;4.78;;
37847;SDS011;23688;33.130;-117.188;2023-09-19T14:51:52;5.40;;;3.78;;
37847;SDS011;23688;33.130;-117.188;2023-09-19T14:54:18;9.23;;;4.80;;
37847;SDS011;23688;33.130;-117.188;2023-09-19T14:56:45;12.90;;;5.43;;
37847;SDS011;23688;33.130;-117.188;2023-09-19T14:59:19;8.48;;;4.97;;
37847;SDS011;23688;33.130;-117.188;2023-09-19T15:01:45;8.45;;;4.78;;
37847;SDS011;23688;33.130;-117.188;2023-09-19T15:04:12;11.35;;;4.68;;
37847;SDS011;23688;33.130;-117.188;2023-09-19T15:06:38;9.70;;;4.30;;
37847;SDS011;23688;33.130;-117.188;2023-09-19T15:09:04;12.95;;;4.20;;
37847;SDS011;23688;33.130;-117.188;2023-09-19T15:11:33;9.90;;;4.70;;
37847;SDS011;23688;33.130;-117.188;2023-09-19T15:13:59;8.18;;;4.25;;
37847;SDS011;23688;33.130;-117.188;2023-09-19T15:16:25;9.10;;;3.92;;
37847;SDS011;23688;33.130;-117.188;2023-09-19T15:18:52;12.40;;;4.25;;
37847;SDS011;23688;33.130;-117.188;2023-09-19T15:21:20;5.53;;;3.10;;
37847;SDS011;23688;33.130;-117.188;2023-09-19T15:23:47;7.10;;;4.10;;
37847;SDS011;23688;33.130;-117.188;2023-09-19T15:26:13;6.82;;;3.17;;
37847;SDS011;23688;33.130;-117.188;2023-09-19T15:28:47;6.28;;;3.85;;
37847;SDS011;23688;33.130;-117.188;2023-09-19T15:31:14;7.32;;;3.45;;
37847;SDS011;23688;33.130;-117.188;2023-09-19T15:33:41;7.75;;;3.60;;
37847;SDS011;23688;33.130;-117.188;2023-09-19T15:36:08;11.80;;;4.07;;
37847;SDS011;23688;33.130;-117.188;2023-09-19T15:41:38;8.80;;;4.60;;